CheckWX is a tool to help pilots better visualize weather data.  It is not intended as a substitute for an official pre-flight weather briefing.

12:26:34 UTC

KICT TAF
Wichita Dwight D Eisenhower National Airport
Wichita, Kansas, USA
KICT 221131Z 2212/2312 VRB03KT P6SM BKN250 FM221700 15006KT P6SM BKN250 FM230000 12007KT P6SM BKN150 FM230300 13008KT P6SM VCSH BKN080 FM230600 12008KT 6SM -SHRA OVC060

Mar-22@
12:00 UTC

Mar-22 @ 12:00 UTC

Mar-22@
17:00 UTC

Mar-22 @ 17:00 UTC

KICT 221131Z 2212/2312 VRB03KT P6SM BKN250
Wind
  • Variable at 3 KTS
Cloud Levels
  • Broken at 25,000' AGL

Mar-22@
17:00 UTC

Mar-22 @ 17:00 UTC

Mar-23@
00:00 UTC

Mar-23 @ 00:00 UTC

FM221700 15006KT P6SM BKN250

From

From Standard forecast or significant change

Wind
  • 150° at 6 KTS
Cloud Levels
  • Broken at 25,000' AGL

Mar-23@
00:00 UTC

Mar-23 @ 00:00 UTC

Mar-23@
03:00 UTC

Mar-23 @ 03:00 UTC

FM230000 12007KT P6SM BKN150

From

From Standard forecast or significant change

Wind
  • 120° at 7 KTS
Cloud Levels
  • Broken at 15,000' AGL

Mar-23@
03:00 UTC

Mar-23 @ 03:00 UTC

Mar-23@
06:00 UTC

Mar-23 @ 06:00 UTC

FM230300 13008KT P6SM VCSH BKN080

From

From Standard forecast or significant change

Wind
  • 130° at 8 KTS
Cloud Levels
  • Broken at 8,000' AGL

Mar-23@
06:00 UTC

Mar-23 @ 06:00 UTC

Mar-23@
12:00 UTC

Mar-23 @ 12:00 UTC

FM230600 12008KT 6SM -SHRA OVC060

From

From Standard forecast or significant change

Wind
  • 120° at 8 KTS
Conditions
Light Rain
Cloud Levels
  • Overcast at 6,000' AGL